Time;durP1;ratioP1;P1;durP2;ratioP2;P2;SDS_P1;SDS_P2;PMS_P1;PMS_P2;Temp;Humidity;BMP_temperature;BMP_pressure;BME280_temperature;BME280_humidity;BME280_pressure;Samples;Min_cycle;Max_cycle;Signal;HPM_P1;HPM_P2
2021/08/12 00:01:08;;;;;;;7.90;6.95;;;21.50;67.30;;;;;;5031575;28;20166;-84
2021/08/12 00:03:35;;;;;;;7.78;7.00;;;21.50;67.30;;;;;;5048136;28;20532;-84
2021/08/12 00:06:02;;;;;;;8.23;7.00;;;21.50;67.20;;;;;;5014819;28;20169;-83
2021/08/12 00:08:28;;;;;;;7.05;6.35;;;21.50;67.20;;;;;;5030973;28;20257;-83
2021/08/12 00:10:53;;;;;;;6.80;5.82;;;21.50;67.30;;;;;;5028049;28;20234;-83
2021/08/12 00:13:19;;;;;;;6.97;6.28;;;21.40;67.20;;;;;;5011483;28;20166;-83
2021/08/12 00:15:46;;;;;;;8.27;6.75;;;21.50;67.40;;;;;;5010938;28;20197;-83
2021/08/12 00:18:13;;;;;;;7.45;6.47;;;21.50;67.40;;;;;;5028238;28;20178;-84
2021/08/12 00:20:38;;;;;;;6.63;5.97;;;21.40;67.20;;;;;;5027660;28;20152;-83
2021/08/12 00:23:05;;;;;;;7.70;6.80;;;21.50;67.30;;;;;;5027397;28;20173;-84
2021/08/12 00:25:31;;;;;;;7.97;6.85;;;21.50;67.40;;;;;;5028459;28;20159;-83
2021/08/12 00:28:04;;;;;;;7.00;6.30;;;21.50;67.30;;;;;;5043794;28;20205;-83
2021/08/12 00:30:37;;;;;;;7.55;6.68;;;21.50;67.40;;;;;;5094167;28;20270;-83
2021/08/12 00:33:05;;;;;;;7.78;6.43;;;21.50;67.40;;;;;;5078887;28;20182;-84
2021/08/12 00:35:33;;;;;;;7.05;6.13;;;21.50;67.30;;;;;;5078933;28;20250;-84
2021/08/12 00:38:03;;;;;;;7.97;6.57;;;21.50;67.20;;;;;;5061952;28;20186;-83
2021/08/12 00:40:33;;;;;;;7.70;6.88;;;21.50;67.40;;;;;;4993500;28;20182;-83
2021/08/12 00:43:01;;;;;;;7.13;6.43;;;21.50;68.20;;;;;;5079336;28;20179;-83
2021/08/12 00:45:28;;;;;;;7.60;6.80;;;21.50;67.30;;;;;;5061985;28;20179;-84
2021/08/12 00:47:56;;;;;;;7.63;6.65;;;21.50;67.40;;;;;;5078144;28;20321;-83
2021/08/12 00:50:24;;;;;;;7.25;6.55;;;21.50;67.40;;;;;;5096092;28;20179;-83
2021/08/12 00:52:51;;;;;;;7.47;6.75;;;21.50;67.40;;;;;;4993351;28;20277;-84
2021/08/12 00:55:23;;;;;;;7.88;6.75;;;21.50;67.40;;;;;;5095371;28;20246;-84
2021/08/12 00:57:49;;;;;;;7.65;6.85;;;21.50;67.40;;;;;;5060936;28;20183;-84
2021/08/12 01:00:15;;;;;;;7.18;6.38;;;21.50;67.40;;;;;;5027115;28;20658;-84
2021/08/12 01:02:41;;;;;;;7.78;6.97;;;21.50;67.40;;;;;;5044389;28;20159;-84
2021/08/12 01:05:08;;;;;;;8.27;6.57;;;21.50;67.40;;;;;;5026435;28;20163;-84
2021/08/12 01:07:46;;;;;;;8.50;7.18;;;21.60;67.40;;;;;;5026045;28;20191;-84
2021/08/12 01:10:18;;;;;;;7.30;6.50;;;21.50;67.30;;;;;;5026299;28;20174;-83
2021/08/12 01:13:02;;;;;;;8.30;7.40;;;21.50;67.40;;;;;;5026248;28;20222;-84
2021/08/12 01:15:34;;;;;;;7.60;6.80;;;21.50;67.30;;;;;;5028502;28;20609;-83
2021/08/12 01:18:05;;;;;;;7.85;7.03;;;21.50;67.40;;;;;;5010650;28;20178;-83
2021/08/12 01:20:52;;;;;;;7.07;6.38;;;21.50;67.40;;;;;;5010484;28;20216;-84
2021/08/12 01:23:19;;;;;;;8.50;6.95;;;21.40;67.40;;;;;;5028248;28;20279;-84
2021/08/12 01:25:45;;;;;;;7.13;6.43;;;21.50;67.30;;;;;;5010307;28;20633;-84
2021/08/12 01:28:18;;;;;;;7.97;6.70;;;21.50;67.40;;;;;;5010975;28;20288;-83
2021/08/12 01:30:57;;;;;;;7.97;6.75;;;21.50;67.40;;;;;;5010146;28;20179;-83
2021/08/12 01:33:28;;;;;;;8.02;6.95;;;21.50;67.40;;;;;;5076885;28;20178;-84
2021/08/12 01:36:02;;;;;;;7.90;7.00;;;21.50;67.40;;;;;;5042488;28;20166;-84
2021/08/12 01:38:33;;;;;;;7.90;6.80;;;21.50;67.40;;;;;;4993471;28;20186;-83
2021/08/12 01:41:01;;;;;;;8.32;6.93;;;21.50;67.40;;;;;;4992903;28;20183;-84
2021/08/12 01:43:28;;;;;;;7.75;6.93;;;21.50;67.50;;;;;;4993007;28;20645;-83
2021/08/12 01:45:57;;;;;;;8.18;7.10;;;21.40;67.40;;;;;;5060349;28;20205;-84
2021/08/12 01:48:24;;;;;;;7.43;6.63;;;21.50;67.50;;;;;;4992614;28;20214;-84
2021/08/12 01:50:57;;;;;;;8.32;7.18;;;21.40;67.50;;;;;;5076386;28;20182;-83
2021/08/12 01:53:25;;;;;;;8.00;7.18;;;21.40;67.50;;;;;;5009300;28;20235;-84
2021/08/12 01:55:52;;;;;;;7.45;6.68;;;21.50;67.50;;;;;;5025741;28;20155;-84
2021/08/12 01:58:18;;;;;;;7.40;6.50;;;21.40;67.50;;;;;;5025175;28;20159;-84
2021/08/12 02:00:47;;;;;;;7.38;6.60;;;21.40;67.50;;;;;;5009307;28;20166;-83
2021/08/12 02:03:16;;;;;;;7.72;6.93;;;21.40;67.50;;;;;;5025937;28;20213;-84
2021/08/12 02:05:44;;;;;;;8.20;7.15;;;21.40;67.50;;;;;;5009661;28;20163;-83
2021/08/12 02:08:11;;;;;;;7.72;6.93;;;21.50;67.60;;;;;;5009935;28;20677;-83
2021/08/12 02:10:37;;;;;;;7.43;6.68;;;21.40;67.50;;;;;;5009289;28;20553;-84
2021/08/12 02:13:06;;;;;;;8.25;6.95;;;21.50;67.50;;;;;;5045335;28;20225;-84
2021/08/12 02:15:32;;;;;;;7.30;6.47;;;21.40;67.50;;;;;;5030132;28;20150;-84
2021/08/12 02:18:02;;;;;;;8.10;7.22;;;21.50;67.50;;;;;;5012975;28;20173;-84
2021/08/12 02:20:32;;;;;;;8.40;7.07;;;21.40;67.50;;;;;;4995239;28;20186;-84
2021/08/12 02:23:10;;;;;;;8.27;7.18;;;21.40;67.50;;;;;;4994953;28;20178;-83
2021/08/12 02:25:46;;;;;;;8.13;6.88;;;21.40;67.50;;;;;;5013240;28;20211;-84
2021/08/12 02:28:15;;;;;;;8.13;6.65;;;21.40;67.50;;;;;;5013281;28;20297;-84
2021/08/12 02:30:44;;;;;;;7.72;6.80;;;21.40;67.50;;;;;;5079775;28;20182;-84
2021/08/12 02:33:12;;;;;;;7.53;6.65;;;21.40;67.50;;;;;;5011760;28;20170;-84
2021/08/12 02:35:38;;;;;;;8.07;6.57;;;21.40;67.50;;;;;;5013266;28;20178;-84
2021/08/12 02:38:05;;;;;;;7.00;6.30;;;21.40;67.60;;;;;;5012429;28;20319;-84
2021/08/12 02:40:34;;;;;;;7.85;6.53;;;21.40;67.60;;;;;;5013216;28;20173;-83
2021/08/12 02:43:00;;;;;;;7.70;6.43;;;21.40;67.60;;;;;;5011466;28;20178;-84
2021/08/12 02:45:28;;;;;;;7.22;6.53;;;21.40;67.60;;;;;;5011576;28;20170;-84
2021/08/12 02:47:54;;;;;;;9.73;7.18;;;21.40;67.50;;;;;;5113694;28;20228;-83
2021/08/12 02:50:22;;;;;;;8.20;6.90;;;21.40;67.60;;;;;;5028737;28;20170;-84
2021/08/12 02:52:52;;;;;;;8.40;7.22;;;21.40;67.50;;;;;;5028589;28;20170;-84
2021/08/12 02:55:19;;;;;;;7.68;6.72;;;21.40;67.60;;;;;;5011563;28;20182;-83
2021/08/12 02:57:48;;;;;;;7.13;6.43;;;21.40;67.60;;;;;;5045149;28;20189;-83
2021/08/12 03:00:16;;;;;;;7.45;6.45;;;21.40;67.60;;;;;;5096570;28;20186;-84
2021/08/12 03:02:46;;;;;;;8.18;7.00;;;21.40;67.60;;;;;;4995254;28;20189;-83
2021/08/12 03:05:19;;;;;;;8.00;6.80;;;21.40;67.60;;;;;;5028533;28;20243;-83
2021/08/12 03:07:50;;;;;;;8.27;7.10;;;21.40;67.60;;;;;;5079550;28;20229;-83
2021/08/12 03:10:19;;;;;;;8.90;7.35;;;21.40;67.50;;;;;;5097518;28;20178;-83
2021/08/12 03:12:47;;;;;;;8.05;7.07;;;21.50;67.70;;;;;;4998763;28;20842;-84
2021/08/12 03:15:14;;;;;;;7.93;6.82;;;21.50;67.60;;;;;;4982386;28;20175;-84
2021/08/12 03:17:42;;;;;;;7.38;6.68;;;21.40;67.50;;;;;;4997960;28;20199;-83
2021/08/12 03:20:14;;;;;;;7.22;6.43;;;21.40;67.40;;;;;;5013973;28;20178;-84
2021/08/12 03:22:43;;;;;;;8.45;6.82;;;21.50;67.50;;;;;;4998520;28;20182;-84
2021/08/12 03:25:10;;;;;;;7.78;6.97;;;21.40;67.50;;;;;;4982842;28;20178;-84
2021/08/12 03:27:38;;;;;;;7.28;6.53;;;21.40;67.50;;;;;;5066536;28;20210;-84
2021/08/12 03:30:08;;;;;;;8.05;7.20;;;21.40;67.60;;;;;;5116938;28;20250;-85
2021/08/12 03:32:35;;;;;;;8.18;6.90;;;21.40;67.50;;;;;;5048043;28;20680;-84
2021/08/12 03:35:05;;;;;;;9.40;7.07;;;21.40;67.50;;;;;;5066053;28;20182;-84
2021/08/12 03:37:36;;;;;;;7.85;6.85;;;21.40;67.60;;;;;;4998524;28;20189;-84
2021/08/12 03:40:09;;;;;;;7.60;6.80;;;21.40;67.60;;;;;;5083001;28;20245;-83
2021/08/12 03:42:35;;;;;;;7.43;6.65;;;21.40;67.70;;;;;;4997888;28;20174;-84
2021/08/12 03:45:06;;;;;;;7.45;6.50;;;21.40;67.60;;;;;;4997975;28;20186;-83
2021/08/12 03:47:33;;;;;;;7.97;7.10;;;21.50;67.80;;;;;;4998170;28;20213;-83
2021/08/12 03:50:03;;;;;;;7.25;6.55;;;21.40;67.60;;;;;;5082620;28;20182;-84
2021/08/12 03:52:34;;;;;;;9.20;6.63;;;21.40;67.60;;;;;;5013312;28;20185;-83
2021/08/12 03:55:04;;;;;;;8.00;6.68;;;21.40;67.60;;;;;;5099442;28;20178;-84
2021/08/12 03:57:30;;;;;;;7.70;6.82;;;21.40;67.60;;;;;;5098987;28;20608;-84
2021/08/12 04:00:04;;;;;;;7.50;6.70;;;21.40;67.60;;;;;;5046732;28;20162;-84
2021/08/12 04:02:34;;;;;;;7.05;6.35;;;21.40;67.60;;;;;;5063626;28;20563;-84
2021/08/12 04:05:05;;;;;;;7.05;6.35;;;21.40;67.60;;;;;;4996530;28;20193;-83
2021/08/12 04:07:36;;;;;;;7.60;6.80;;;21.40;67.60;;;;;;4996444;28;20263;-84
2021/08/12 04:10:08;;;;;;;7.82;6.80;;;21.40;67.60;;;;;;5080713;28;20228;-84
2021/08/12 04:12:34;;;;;;;7.80;6.78;;;21.40;67.60;;;;;;5041503;28;20603;-84
2021/08/12 04:15:03;;;;;;;7.88;6.80;;;21.40;67.60;;;;;;5004047;28;20238;-84
2021/08/12 04:17:29;;;;;;;7.70;6.57;;;21.40;67.50;;;;;;4988568;28;20179;-84
2021/08/12 04:19:57;;;;;;;6.95;6.07;;;21.40;67.50;;;;;;5005832;28;20281;-84
2021/08/12 04:22:25;;;;;;;7.00;6.13;;;21.40;67.40;;;;;;4988779;28;20184;-84
2021/08/12 04:24:52;;;;;;;6.88;5.88;;;21.40;67.50;;;;;;4988988;28;20179;-84
2021/08/12 04:27:20;;;;;;;6.78;6.05;;;21.30;67.70;;;;;;4990022;28;20222;-84
2021/08/12 04:29:47;;;;;;;7.10;6.25;;;21.30;67.70;;;;;;5072698;28;20187;-84
2021/08/12 04:32:18;;;;;;;6.70;6.00;;;21.40;67.80;;;;;;4988522;28;20179;-84
2021/08/12 04:34:45;;;;;;;6.47;5.88;;;21.30;67.60;;;;;;5056966;28;20254;-84
2021/08/12 04:37:16;;;;;;;6.65;5.80;;;21.40;67.00;;;;;;4989924;28;20187;-84
2021/08/12 04:39:44;;;;;;;7.57;6.22;;;21.40;67.00;;;;;;5073826;28;20187;-83
2021/08/12 04:42:14;;;;;;;6.28;5.68;;;21.50;66.90;;;;;;5057239;28;20191;-84
2021/08/12 04:44:39;;;;;;;6.72;5.90;;;21.50;66.70;;;;;;5056888;28;20657;-84
2021/08/12 04:47:09;;;;;;;7.25;5.90;;;21.60;66.70;;;;;;5021998;28;20205;-84
2021/08/12 04:49:42;;;;;;;5.95;5.20;;;21.50;66.70;;;;;;4989206;28;20191;-85
2021/08/12 04:52:14;;;;;;;6.55;5.90;;;21.60;66.60;;;;;;5057392;28;20212;-84
2021/08/12 04:54:46;;;;;;;6.97;6.28;;;21.60;66.60;;;;;;5074918;28;20184;-85
2021/08/12 04:57:16;;;;;;;6.35;5.53;;;21.60;66.50;;;;;;5057162;28;20179;-85
2021/08/12 04:59:42;;;;;;;6.47;5.70;;;21.60;66.50;;;;;;5005433;28;20203;-85
2021/08/12 05:02:09;;;;;;;7.60;6.18;;;21.70;66.30;;;;;;5023249;28;20171;-85
2021/08/12 05:04:35;;;;;;;6.47;5.70;;;21.70;66.20;;;;;;5023503;28;20164;-85
2021/08/12 05:07:06;;;;;;;6.50;5.70;;;21.80;66.10;;;;;;5022860;28;20199;-84
2021/08/12 05:09:41;;;;;;;6.75;5.97;;;21.80;66.00;;;;;;5074409;28;20232;-83
2021/08/12 05:12:07;;;;;;;6.47;5.50;;;21.80;65.90;;;;;;4985767;28;20734;-85
2021/08/12 05:14:38;;;;;;;6.72;5.97;;;21.80;65.80;;;;;;4985682;28;20173;-85
2021/08/12 05:17:04;;;;;;;6.90;5.72;;;21.80;65.80;;;;;;4969482;28;20188;-85
2021/08/12 05:19:31;;;;;;;6.95;6.15;;;21.80;65.80;;;;;;4986206;28;20164;-84
2021/08/12 05:22:01;;;;;;;6.22;5.63;;;21.80;65.80;;;;;;4985540;28;20714;-85
2021/08/12 05:24:33;;;;;;;6.72;5.93;;;21.90;65.50;;;;;;4985453;28;20188;-84
2021/08/12 05:27:05;;;;;;;6.78;5.78;;;21.80;65.80;;;;;;4968655;28;20238;-84
2021/08/12 05:29:33;;;;;;;6.57;5.85;;;21.80;65.90;;;;;;4968425;28;20639;-84
2021/08/12 05:32:03;;;;;;;6.32;5.47;;;21.90;66.30;;;;;;4968359;28;20188;-85
2021/08/12 05:34:33;;;;;;;6.50;5.50;;;21.80;66.30;;;;;;4983998;28;20184;-85
2021/08/12 05:36:59;;;;;;;5.80;5.20;;;22.00;65.50;;;;;;4984440;28;20215;-85
2021/08/12 05:39:26;;;;;;;6.10;5.50;;;22.00;65.40;;;;;;4983330;28;20171;-85
2021/08/12 05:41:56;;;;;;;6.57;5.63;;;22.00;65.40;;;;;;4984343;28;20171;-84
2021/08/12 05:44:22;;;;;;;6.55;5.70;;;22.00;65.40;;;;;;5003633;28;20210;-85
2021/08/12 05:46:52;;;;;;;6.85;5.95;;;21.90;65.50;;;;;;5003727;28;20167;-85
2021/08/12 05:49:24;;;;;;;5.78;5.18;;;21.90;65.60;;;;;;5072439;28;20179;-85
2021/08/12 05:51:52;;;;;;;6.55;5.88;;;21.90;65.90;;;;;;5071814;28;20219;-85
2021/08/12 05:54:20;;;;;;;6.22;5.43;;;21.90;65.50;;;;;;5020257;28;20511;-85
2021/08/12 05:56:46;;;;;;;6.03;5.43;;;21.90;65.50;;;;;;5004902;28;20236;-85
2021/08/12 05:59:12;;;;;;;7.03;5.70;;;21.90;65.70;;;;;;5020134;28;20181;-85
2021/08/12 06:01:39;;;;;;;6.47;5.57;;;21.90;65.70;;;;;;5004676;28;20171;-85
2021/08/12 06:04:05;;;;;;;5.93;5.32;;;22.00;65.80;;;;;;5004481;28;20183;-84
2021/08/12 06:06:31;;;;;;;6.00;5.35;;;21.90;65.50;;;;;;5020388;28;20156;-83
2021/08/12 06:09:02;;;;;;;5.93;5.32;;;22.00;65.40;;;;;;5003952;28;20561;-84
2021/08/12 06:11:27;;;;;;;6.25;5.65;;;22.00;65.40;;;;;;5055169;28;20272;-85
2021/08/12 06:13:54;;;;;;;5.78;5.03;;;22.00;65.50;;;;;;5004265;28;20171;-85
2021/08/12 06:16:20;;;;;;;5.90;5.30;;;21.90;65.50;;;;;;5004172;28;20201;-85
2021/08/12 06:18:50;;;;;;;5.78;5.05;;;22.00;65.60;;;;;;5004447;28;20171;-85
2021/08/12 06:21:20;;;;;;;5.72;5.13;;;22.00;65.30;;;;;;4987197;28;20201;-85
2021/08/12 06:23:47;;;;;;;6.30;5.32;;;22.10;65.30;;;;;;5054138;28;20180;-85
2021/08/12 06:26:17;;;;;;;5.80;5.20;;;22.10;65.10;;;;;;5003603;28;20164;-85
2021/08/12 06:28:50;;;;;;;5.95;5.30;;;22.10;65.20;;;;;;5002741;28;20222;-85
2021/08/12 06:31:16;;;;;;;5.70;4.90;;;22.00;65.10;;;;;;5050436;28;20190;-85
2021/08/12 06:33:43;;;;;;;5.93;5.32;;;22.00;65.20;;;;;;5032446;28;20168;-85
2021/08/12 06:36:13;;;;;;;6.45;5.68;;;22.10;65.10;;;;;;5000960;28;20163;-85
2021/08/12 06:38:42;;;;;;;7.00;5.40;;;22.20;64.90;;;;;;4997458;28;20194;-85
2021/08/12 06:41:14;;;;;;;5.82;5.20;;;22.10;65.10;;;;;;4997342;28;20232;-84
2021/08/12 06:43:41;;;;;;;6.05;5.25;;;22.10;65.10;;;;;;5047762;28;20187;-84
2021/08/12 06:46:12;;;;;;;5.75;5.15;;;22.10;65.00;;;;;;5021091;28;20160;-85
2021/08/12 06:48:38;;;;;;;5.95;5.10;;;22.10;64.90;;;;;;5067188;28;20219;-84
2021/08/12 06:51:05;;;;;;;6.18;5.32;;;22.10;65.40;;;;;;5013337;28;20207;-84
2021/08/12 06:53:31;;;;;;;5.93;5.32;;;22.00;65.50;;;;;;5012076;28;20220;-81
2021/08/12 06:55:57;;;;;;;5.10;4.45;;;22.10;65.30;;;;;;5013375;28;20690;-81
2021/08/12 06:58:23;;;;;;;6.65;4.88;;;22.20;65.70;;;;;;5013686;28;20253;-83
2021/08/12 07:00:49;;;;;;;5.70;5.10;;;22.30;65.50;;;;;;5013258;28;20630;-83
2021/08/12 07:03:15;;;;;;;6.07;5.47;;;22.20;65.30;;;;;;5012230;28;20238;-82
2021/08/12 07:05:41;;;;;;;5.65;5.15;;;22.20;65.00;;;;;;5013729;28;20252;-82
2021/08/12 07:08:08;;;;;;;5.97;5.35;;;22.20;65.80;;;;;;5012875;28;20188;-82
2021/08/12 07:10:35;;;;;;;6.40;5.07;;;22.10;65.50;;;;;;5012251;28;20167;-82
2021/08/12 07:13:01;;;;;;;6.85;5.00;;;22.20;65.30;;;;;;5052758;28;20217;-82
2021/08/12 07:15:28;;;;;;;7.15;5.32;;;22.20;65.60;;;;;;5035495;28;20224;-81
2021/08/12 07:17:56;;;;;;;6.35;5.35;;;22.20;65.40;;;;;;5070449;28;20196;-81
2021/08/12 07:20:23;;;;;;;5.88;5.18;;;22.20;65.30;;;;;;5087593;28;20543;-81
2021/08/12 07:22:50;;;;;;;5.47;4.72;;;22.20;65.30;;;;;;5070322;28;20175;-81
2021/08/12 07:25:19;;;;;;;7.25;4.97;;;22.20;65.50;;;;;;5087046;28;20261;-82
2021/08/12 07:27:49;;;;;;;5.80;5.15;;;22.40;65.30;;;;;;5069368;28;20206;-82
2021/08/12 07:30:16;;;;;;;5.70;5.10;;;22.30;65.40;;;;;;5086566;28;20202;-81
2021/08/12 07:32:43;;;;;;;5.80;4.65;;;22.30;64.90;;;;;;5001149;28;20225;-82
2021/08/12 07:35:10;;;;;;;5.75;5.00;;;22.40;65.40;;;;;;5086630;28;20182;-82
2021/08/12 07:37:37;;;;;;;5.90;5.30;;;22.30;65.40;;;;;;5035504;28;20222;-82
2021/08/12 07:40:05;;;;;;;5.88;5.22;;;22.30;65.00;;;;;;5035175;28;20150;-81
2021/08/12 07:42:32;;;;;;;6.05;5.15;;;22.30;65.30;;;;;;5087031;28;20178;-81
2021/08/12 07:45:00;;;;;;;5.47;4.97;;;22.30;65.70;;;;;;5086859;28;20185;-81
2021/08/12 07:47:29;;;;;;;6.25;5.10;;;22.40;65.20;;;;;;5086206;28;20252;-81
2021/08/12 07:49:57;;;;;;;6.00;5.15;;;22.40;65.20;;;;;;5086232;28;20672;-83
2021/08/12 07:52:24;;;;;;;5.18;4.60;;;22.40;65.00;;;;;;5086520;28;20178;-82
2021/08/12 07:54:51;;;;;;;5.60;4.93;;;22.40;65.20;;;;;;5069919;28;20227;-82
2021/08/12 07:57:18;;;;;;;6.07;5.30;;;22.50;65.00;;;;;;4999832;28;20705;-82
2021/08/12 07:59:45;;;;;;;5.72;5.10;;;22.40;64.70;;;;;;5069816;28;20660;-82
2021/08/12 08:02:12;;;;;;;6.07;4.78;;;22.40;65.70;;;;;;5087061;28;20177;-82
2021/08/12 08:04:38;;;;;;;6.28;5.18;;;22.40;65.40;;;;;;5070552;28;20224;-83
2021/08/12 08:07:09;;;;;;;6.15;4.85;;;22.40;65.40;;;;;;5056610;28;20210;-83
2021/08/12 08:09:36;;;;;;;5.70;5.10;;;22.50;65.20;;;;;;5093639;28;20189;-83
2021/08/12 08:12:02;;;;;;;6.32;5.22;;;22.50;64.80;;;;;;5023250;28;20244;-84
2021/08/12 08:14:28;;;;;;;7.88;5.07;;;22.50;65.20;;;;;;5038854;28;20242;-82
2021/08/12 08:16:58;;;;;;;5.25;4.63;;;22.50;65.80;;;;;;5032666;28;20209;-83
2021/08/12 08:19:24;;;;;;;5.15;4.65;;;22.60;65.70;;;;;;5051098;28;20544;-84
2021/08/12 08:21:51;;;;;;;6.00;4.78;;;22.70;64.80;;;;;;5033365;28;20155;-81
2021/08/12 08:24:17;;;;;;;6.28;4.65;;;22.80;64.60;;;;;;5032453;28;20151;-82
2021/08/12 08:26:43;;;;;;;5.18;4.57;;;22.90;64.60;;;;;;5031697;28;20166;-82
2021/08/12 08:29:09;;;;;;;6.15;4.57;;;23.00;63.70;;;;;;5032487;27;20225;-82
2021/08/12 08:31:35;;;;;;;5.88;4.80;;;23.00;64.10;;;;;;5014778;28;20159;-84
2021/08/12 08:34:01;;;;;;;5.60;5.00;;;23.00;63.60;;;;;;5031484;28;20182;-85
2021/08/12 08:36:27;;;;;;;5.45;4.90;;;23.10;63.20;;;;;;5031513;28;20163;-83
2021/08/12 08:38:57;;;;;;;7.00;4.95;;;23.00;63.60;;;;;;5032094;28;20166;-81
2021/08/12 08:41:23;;;;;;;7.57;5.50;;;23.10;63.80;;;;;;5049695;28;20186;-81
2021/08/12 08:43:51;;;;;;;5.80;5.20;;;23.10;63.90;;;;;;5032726;28;20174;-81
2021/08/12 08:46:19;;;;;;;6.13;5.30;;;23.30;63.90;;;;;;5066652;28;20182;-81
2021/08/12 08:48:46;;;;;;;5.32;4.72;;;23.40;62.90;;;;;;5049160;28;20218;-82
2021/08/12 08:51:15;;;;;;;6.38;5.03;;;23.50;63.00;;;;;;5083189;28;20214;-81
2021/08/12 08:53:42;;;;;;;5.18;4.60;;;23.60;62.80;;;;;;4997932;28;20194;-83
2021/08/12 08:56:09;;;;;;;5.25;4.70;;;23.50;62.30;;;;;;5013920;28;20162;-82
2021/08/12 08:58:37;;;;;;;6.00;4.82;;;23.30;63.00;;;;;;4996818;28;20225;-81
2021/08/12 09:01:04;;;;;;;5.53;4.72;;;23.40;62.60;;;;;;5065325;28;20203;-81
2021/08/12 09:03:30;;;;;;;5.45;4.95;;;23.50;62.60;;;;;;4997188;28;20680;-80
2021/08/12 09:05:57;;;;;;;5.50;4.80;;;23.50;62.50;;;;;;5013974;28;20163;-83
2021/08/12 09:08:24;;;;;;;5.28;4.78;;;23.40;62.50;;;;;;4997677;28;20224;-83
2021/08/12 09:10:50;;;;;;;7.32;4.88;;;23.40;62.70;;;;;;5067050;28;20179;-82
2021/08/12 09:13:20;;;;;;;7.82;5.00;;;23.40;62.20;;;;;;5036165;28;20242;-82
2021/08/12 09:15:47;;;;;;;5.13;4.63;;;23.30;62.70;;;;;;5002382;28;20186;-82
2021/08/12 09:18:23;;;;;;;5.82;5.10;;;23.30;62.70;;;;;;5086917;28;20227;-84
2021/08/12 09:20:51;;;;;;;5.10;4.60;;;23.30;63.00;;;;;;4986155;28;20182;-83
2021/08/12 09:23:32;;;;;;;5.35;4.85;;;23.30;62.90;;;;;;5069363;28;20186;-82
2021/08/12 09:25:59;;;;;;;5.70;5.10;;;23.30;63.00;;;;;;5035059;28;20573;-85
2021/08/12 09:28:29;;;;;;;8.02;4.60;;;23.30;63.00;;;;;;5000764;28;20241;-80
2021/08/12 09:31:10;;;;;;;5.32;4.55;;;23.10;62.90;;;;;;5068569;28;20186;-81
2021/08/12 09:33:44;;;;;;;6.65;4.97;;;23.10;63.30;;;;;;5000682;28;20213;-80
2021/08/12 09:36:26;;;;;;;4.95;4.32;;;23.10;63.20;;;;;;5001015;28;20186;-81
2021/08/12 09:39:12;;;;;;;5.03;4.53;;;23.10;63.70;;;;;;5033576;28;20188;-83
2021/08/12 09:41:49;;;;;;;5.55;4.72;;;23.20;63.60;;;;;;5067926;28;20178;-80
2021/08/12 09:44:39;;;;;;;5.18;4.53;;;23.30;63.10;;;;;;5067818;28;20543;-84
2021/08/12 09:47:28;;;;;;;5.38;4.57;;;23.30;63.10;;;;;;5034246;28;20208;-81
2021/08/12 09:49:59;;;;;;;5.82;4.80;;;23.20;63.20;;;;;;5029524;28;20182;-80
2021/08/12 09:52:32;;;;;;;5.00;4.50;;;23.20;63.20;;;;;;5086318;28;20653;-83
2021/08/12 09:55:03;;;;;;;5.30;4.80;;;23.20;63.10;;;;;;4985394;28;20182;-83
2021/08/12 09:57:43;;;;;;;5.45;4.82;;;23.20;63.40;;;;;;5068145;28;20233;-81
2021/08/12 10:00:11;;;;;;;5.75;4.90;;;23.10;63.30;;;;;;5068171;28;20209;-81
2021/08/12 10:02:42;;;;;;;5.50;4.85;;;23.10;63.60;;;;;;5051896;28;20182;-81
2021/08/12 10:05:10;;;;;;;6.28;4.78;;;23.10;63.60;;;;;;4983629;28;20212;-81
2021/08/12 10:07:42;;;;;;;5.78;4.60;;;23.00;63.70;;;;;;4983172;28;20264;-84
2021/08/12 10:10:17;;;;;;;5.55;5.05;;;22.90;64.10;;;;;;5068225;28;20225;-83
2021/08/12 10:12:55;;;;;;;5.70;4.40;;;23.00;64.00;;;;;;5050622;28;20277;-84
2021/08/12 10:15:25;;;;;;;5.10;4.55;;;22.90;64.00;;;;;;5016759;28;20253;-83
2021/08/12 10:17:58;;;;;;;4.70;4.20;;;22.90;64.10;;;;;;5034448;28;20161;-83
2021/08/12 10:20:36;;;;;;;6.57;4.45;;;23.00;64.10;;;;;;5068493;28;20269;-84
2021/08/12 10:23:07;;;;;;;6.22;4.53;;;23.00;64.10;;;;;;4983672;28;20217;-83
2021/08/12 10:25:34;;;;;;;5.15;4.53;;;23.00;64.10;;;;;;5067856;28;20228;-83
2021/08/12 10:28:03;;;;;;;5.22;4.57;;;23.00;64.90;;;;;;5033518;28;20200;-81
2021/08/12 10:30:29;;;;;;;4.88;4.32;;;22.90;64.10;;;;;;5033833;28;20161;-81
2021/08/12 10:33:00;;;;;;;6.22;4.70;;;22.90;64.20;;;;;;5017901;28;20170;-82
2021/08/12 10:35:28;;;;;;;5.85;4.40;;;22.90;64.40;;;;;;5034126;28;20172;-81
2021/08/12 10:37:55;;;;;;;8.25;4.68;;;22.90;64.90;;;;;;5050332;28;20165;-83
2021/08/12 10:40:23;;;;;;;5.00;4.50;;;23.00;64.90;;;;;;5032871;28;20154;-84
2021/08/12 10:42:50;;;;;;;6.30;4.70;;;23.30;63.40;;;;;;5070184;28;20280;-81
2021/08/12 10:45:21;;;;;;;6.07;4.63;;;23.60;62.40;;;;;;4985265;28;20178;-80
2021/08/12 10:47:54;;;;;;;8.63;4.72;;;23.80;61.70;;;;;;4986529;28;20543;-82
2021/08/12 10:50:31;;;;;;;6.82;4.55;;;23.90;61.30;;;;;;4970262;28;20273;-82
2021/08/12 10:53:14;;;;;;;6.07;4.57;;;24.00;60.90;;;;;;5036908;28;20643;-79
2021/08/12 10:56:00;;;;;;;5.30;4.78;;;24.10;60.80;;;;;;5021209;28;20173;-80
2021/08/12 10:58:36;;;;;;;4.75;4.20;;;24.10;60.70;;;;;;5036648;28;20181;-81
2021/08/12 11:01:06;;;;;;;5.13;4.50;;;24.20;60.20;;;;;;4986834;28;20253;-82
2021/08/12 11:03:43;;;;;;;5.03;4.43;;;24.10;60.10;;;;;;5055488;28;20236;-80
2021/08/12 11:06:22;;;;;;;5.72;4.53;;;24.00;60.50;;;;;;5038766;28;20242;-80
2021/08/12 11:08:59;;;;;;;7.45;4.22;;;24.00;60.70;;;;;;5004745;28;20680;-83
2021/08/12 11:11:49;;;;;;;6.88;4.72;;;24.00;60.30;;;;;;5037900;28;20308;-79
2021/08/12 11:14:15;;;;;;;6.80;4.43;;;24.10;60.30;;;;;;5006816;28;20162;-81
2021/08/12 11:16:58;;;;;;;6.32;4.97;;;24.20;60.30;;;;;;5036199;28;20191;-80
2021/08/12 11:19:33;;;;;;;7.72;4.95;;;24.20;59.90;;;;;;5037486;28;20165;-80
2021/08/12 11:22:04;;;;;;;8.63;4.78;;;24.20;59.80;;;;;;5039851;28;20162;-82
2021/08/12 11:24:50;;;;;;;5.82;4.55;;;24.10;60.00;;;;;;5072835;28;20261;-81
2021/08/12 11:27:35;;;;;;;6.07;4.70;;;24.10;60.30;;;;;;5037277;28;20568;-80
2021/08/12 11:30:32;;;;;;;6.75;4.47;;;24.20;60.00;;;;;;5088054;28;20569;-81
2021/08/12 11:33:29;;;;;;;7.70;4.63;;;24.30;59.80;;;;;;5057498;27;20174;-81
2021/08/12 11:36:19;;;;;;;10.20;4.20;;;24.30;59.80;;;;;;4987784;28;20202;-82
2021/08/12 11:38:53;;;;;;;7.05;4.40;;;24.30;60.00;;;;;;5072105;28;20186;-84
2021/08/12 11:41:19;;;;;;;6.38;4.60;;;24.30;59.50;;;;;;5006203;28;20210;-81
2021/08/12 11:43:46;;;;;;;6.97;4.72;;;24.20;60.30;;;;;;5021221;28;20208;-82
2021/08/12 11:46:14;;;;;;;5.80;4.53;;;24.30;60.00;;;;;;5053919;28;20296;-79
2021/08/12 11:48:41;;;;;;;7.95;4.40;;;24.30;59.80;;;;;;5004453;28;20301;-81
2021/08/12 11:51:08;;;;;;;7.30;4.63;;;24.40;59.80;;;;;;5069432;28;20260;-81
2021/08/12 11:53:39;;;;;;;7.63;4.50;;;24.40;60.00;;;;;;5001380;28;20181;-82
2021/08/12 11:56:12;;;;;;;6.97;4.25;;;24.30;59.70;;;;;;5052535;28;20222;-80
2021/08/12 11:58:47;;;;;;;10.77;4.70;;;24.20;60.60;;;;;;5086010;28;20210;-81
2021/08/12 12:01:16;;;;;;;7.45;4.53;;;24.20;60.30;;;;;;4988732;28;20188;-81
2021/08/12 12:03:43;;;;;;;6.10;4.60;;;24.20;60.70;;;;;;5003603;28;20182;-82
2021/08/12 12:06:10;;;;;;;7.38;4.60;;;24.30;60.50;;;;;;5002896;28;20173;-82
2021/08/12 12:08:40;;;;;;;9.35;4.47;;;24.30;60.40;;;;;;5070760;28;20214;-82
2021/08/12 12:11:07;;;;;;;6.57;4.15;;;24.10;60.40;;;;;;4986253;28;20584;-82
2021/08/12 12:13:33;;;;;;;5.72;4.70;;;24.10;60.90;;;;;;5037335;28;20162;-81
2021/08/12 12:16:00;;;;;;;6.95;4.45;;;24.10;60.30;;;;;;5071830;28;20205;-81
2021/08/12 12:18:34;;;;;;;8.15;4.30;;;24.30;60.10;;;;;;5088418;28;20272;-81
2021/08/12 12:21:15;;;;;;;7.57;4.35;;;24.30;60.00;;;;;;5072270;28;20174;-79
2021/08/12 12:23:43;;;;;;;6.28;4.80;;;24.30;59.90;;;;;;5020525;28;20628;-81
2021/08/12 12:26:23;;;;;;;7.25;4.53;;;24.20;60.70;;;;;;5019848;28;20248;-81
2021/08/12 12:28:49;;;;;;;7.75;4.50;;;24.30;60.00;;;;;;5055298;28;20221;-81
2021/08/12 12:31:17;;;;;;;4.90;4.00;;;24.30;59.70;;;;;;5037020;28;20166;-81
2021/08/12 12:33:56;;;;;;;9.50;4.70;;;24.40;59.80;;;;;;5055400;28;20161;-81
2021/08/12 12:36:22;;;;;;;5.85;4.90;;;24.30;59.60;;;;;;5088248;28;20269;-81
2021/08/12 12:38:50;;;;;;;8.88;4.80;;;24.20;60.40;;;;;;5038187;28;20162;-81
2021/08/12 12:41:16;;;;;;;5.85;4.07;;;24.10;60.30;;;;;;5038559;28;20162;-80
2021/08/12 12:43:42;;;;;;;5.53;4.38;;;24.20;59.90;;;;;;5035740;28;20159;-81
2021/08/12 12:46:13;;;;;;;9.18;4.57;;;24.10;59.80;;;;;;5019386;28;20502;-82
2021/08/12 12:48:39;;;;;;;6.55;4.72;;;24.20;60.00;;;;;;5087108;28;20246;-81
2021/08/12 12:51:10;;;;;;;8.23;4.35;;;24.30;59.80;;;;;;5052696;28;20161;-83
2021/08/12 12:53:40;;;;;;;7.03;4.35;;;24.20;59.80;;;;;;5087708;28;20189;-82
2021/08/12 12:56:19;;;;;;;5.70;4.20;;;24.10;60.10;;;;;;5035425;28;20503;-82
2021/08/12 12:58:45;;;;;;;7.43;4.70;;;24.20;59.90;;;;;;5035087;28;20154;-81
2021/08/12 13:01:18;;;;;;;6.00;4.40;;;24.20;59.80;;;;;;5034282;28;20159;-82